Portada
METAR-TAF:

METAR-TAF

Aeroports :

Aeroport Internacional Quatro de Fevereiro

Luanda, Angola

latitud: 08-51S, longitud: 013-14E, altitud: 74 m

Observació

L'informe es va fer fa 52 minuts, a les 20:00 UTC
Temperatura 27°C
Humitat 84%
Pressió 1009 hPa
Visibilitat 10 km o més
Escasses núvols a una alçada de 2000 ft

METAR: FNLU 072000Z /////KT 9999 FEW020 27/24 Q1009 NOSIG

Hora: 21:52 (20:52 UTC)

Pronòstic

L'informe es va fer fa 3 hores i 52 minuts, a les 17:00 UTC
Pronòstic vàlid del 07 a les 18 UTC al 08 a les 24 UTC
Vent 6 kt del Sud/Sud-Oest
Visibilitat 10 km o més
Núvols disperses a una alçada de 1800 ft
Evolucionant progressivament
l' 08 a les 10 UTC al 08 a les 12 UTC
Vent 10 kt del Oest

TAF: FNLU 071700Z 0718/0824 21006KT 9999 SCT018 BECMG 0810/0812 27010KT

Observacions i pronòstics meteorològics de més de 4000 aeroports (METAR i TAF).

Les estacions disponibles són els punts grocs i vermells al mapa.

Posi el ratolí al punt desitjat per veure el nom de l'estació.

Feu clic per veure les observacions i els pronòstics meteorològics.

Per canviar el mapa: feu clic els botons verds amb una creu de color negre per apropar; al botó verd amb un guió per allunyar la imatge; o en les fletxes verdes per a mapes adjacents.


METAR-TAF: